Date,TemperatureHighF,TemperatureAvgF,TemperatureLowF,DewpointHighF,DewpointAvgF,DewpointLowF,HumidityHigh,HumidityAvg,HumidityLow,PressureMaxIn,PressureMinIn,WindSpeedMaxMPH,WindSpeedAvgMPH,GustSpeedMaxMPH,PrecipitationSumIn
2013-1-1,78.2,63.0,50.5,61.1,56.5,49.7,99,82,52,30.24,30.05,16,1,20,0.00
2013-1-2,81.8,66.5,54.6,66.9,61.1,53.8,99,84,55,30.08,29.98,14,1,14,0.00
2013-1-3,73.7,64.5,58.1,66.4,61.9,55.9,99,92,76,30.19,30.04,18,1,18,0.06
2013-1-4,59.1,57.1,54.4,58.4,56.3,53.5,98,97,95,30.29,30.16,16,2,16,0.17
2013-1-5,75.8,62.4,53.7,63.8,57.4,51.6,97,84,64,30.32,30.20,16,2,16,0.01
2013-1-6,79.7,67.8,60.6,68.7,63.4,58.5,98,87,67,30.23,30.07,16,1,22,0.24
2013-1-7,71.8,63.1,56.0,61.8,58.4,52.2,96,85,62,30.24,30.13,18,2,22,0.00
2013-1-8,81.3,70.4,62.5,70.3,66.4,60.8,99,88,65,30.24,30.14,10,1,10,0.00
2013-1-9,82.3,71.5,65.0,74.3,68.6,64.4,100,91,71,30.32,30.21,16,1,16,0.00
2013-1-10,82.3,70.9,63.4,70.0,65.9,62.8,100,86,57,30.33,30.23,22,3,28,0.01
2013-1-11,81.3,69.8,59.5,70.0,64.4,58.9,100,84,56,30.28,30.17,20,2,20,0.00
2013-1-12,82.5,69.0,58.2,69.3,63.0,57.6,100,83,52,30.22,30.10,18,2,18,0.00
2013-1-13,83.5,68.6,56.3,67.4,62.3,55.8,100,82,50,30.18,30.08,18,1,18,0.00
2013-1-14,83.3,68.8,57.6,66.8,63.0,56.8,99,84,53,30.21,30.12,18,2,18,0.00
2013-1-15,82.5,69.4,60.0,68.5,64.1,59.2,99,85,54,30.17,30.07,28,2,28,0.00
2013-1-16,84.2,69.0,58.2,67.0,61.5,57.6,100,80,44,30.12,30.01,14,1,14,0.00
2013-1-17,79.3,63.7,53.3,69.3,58.5,45.5,99,84,63,30.12,29.96,34,5,36,0.00
2013-1-18,65.3,54.4,40.6,60.7,47.8,34.7,94,78,71,30.30,30.11,26,4,26,0.02
2013-1-19,74.4,64.1,54.9,62.1,57.6,52.0,92,80,62,30.30,30.15,22,2,22,0.00
2013-1-20,74.5,63.4,57.8,64.5,58.9,53.4,97,86,66,30.19,30.07,20,2,20,0.01
2013-1-21,76.0,64.4,58.5,62.7,58.0,54.9,92,80,61,30.11,30.00,10,0,10,0.00
2013-1-22,65.0,57.1,45.2,55.0,45.1,37.8,86,66,42,30.29,30.07,18,2,22,0.00
2013-1-23,71.2,54.1,42.2,44.8,39.6,31.9,91,62,26,30.38,30.28,14,1,14,0.00
2013-1-24,74.7,57.6,42.5,53.1,46.3,40.6,98,70,37,30.34,30.23,18,2,18,0.00
2013-1-25,77.9,61.6,49.5,57.1,51.1,46.4,99,72,39,30.32,30.18,16,1,16,0.00
2013-1-26,78.3,59.6,44.2,58.4,50.9,43.1,99,76,42,30.29,30.17,16,1,18,0.00
2013-1-27,80.2,64.0,49.4,63.1,57.0,48.6,99,81,46,30.33,30.24,16,1,16,0.00
2013-1-28,78.2,68.4,59.3,65.2,62.6,57.9,99,83,61,30.35,30.25,22,3,24,0.00
2013-1-29,83.5,70.6,59.8,69.2,64.8,59.0,99,84,55,30.27,30.12,24,2,24,0.00
2013-1-30,84.3,72.8,61.8,66.4,64.1,60.9,99,76,51,30.14,29.89,22,4,24,0.00
2013-1-31,70.2,58.9,48.1,66.2,42.7,28.1,95,59,28,30.24,29.90,26,4,30,0.06
2013-2-1,72.3,52.9,35.5,37.9,31.9,23.9,88,50,17,30.37,30.24,18,2,20,0.00
2013-2-2,74.0,55.6,40.6,45.7,39.6,35.5,85,60,28,30.33,30.16,16,1,16,0.00
2013-2-3,72.3,56.8,40.9,50.7,42.6,34.8,95,62,38,30.20,30.07,22,3,22,0.00
2013-2-4,73.0,55.3,39.5,47.7,40.0,33.0,98,62,26,30.16,30.05,16,1,16,0.00
2013-2-5,78.2,58.9,40.4,53.2,46.9,39.1,98,68,37,30.12,30.00,18,1,18,0.00
2013-2-6,80.5,67.1,55.5,63.8,58.5,52.6,92,75,50,30.13,30.04,12,1,14,0.00
2013-2-7,82.6,72.6,65.2,64.1,61.7,58.0,88,70,50,30.10,29.88,20,2,22,0.00
2013-2-8,82.1,70.7,60.2,64.8,59.4,54.7,90,70,42,30.09,29.88,26,4,26,0.00
2013-2-9,76.4,62.5,53.5,58.6,54.6,51.5,95,77,48,30.22,30.08,16,2,20,0.00
2013-2-10,78.6,64.4,51.5,61.1,56.0,50.4,98,76,48,30.29,30.18,30,4,30,0.00
2013-2-11,84.4,69.7,55.0,64.3,59.8,53.9,99,74,44,30.23,30.08,20,2,20,0.00
2013-2-12,86.5,73.1,59.2,68.2,63.3,58.3,99,74,44,30.11,29.93,20,2,20,0.00
2013-2-13,87.6,73.3,63.9,69.8,66.3,59.2,96,81,48,29.98,29.81,26,4,28,0.36
2013-2-14,67.3,62.5,56.6,61.5,59.2,55.5,97,89,75,30.06,29.92,18,1,20,0.21
2013-2-15,71.6,58.8,52.8,58.2,54.1,51.6,97,86,56,30.10,29.96,18,2,18,0.03
2013-2-16,69.5,57.2,48.5,52.6,43.9,25.9,96,65,31,30.14,29.90,34,6,36,0.00
2013-2-17,57.2,44.8,33.5,30.1,20.8,9.2,78,42,16,30.37,30.14,28,4,32,0.00
2013-2-18,68.8,50.0,30.6,47.1,37.4,26.5,92,66,39,30.39,30.23,26,2,30,0.00
2013-2-19,79.8,62.9,44.9,56.9,50.8,43.6,97,69,38,30.24,30.06,22,2,22,0.00
2013-2-20,77.5,64.6,57.5,60.5,56.3,53.1,97,76,54,30.15,30.03,14,1,14,0.00
2013-2-21,85.2,69.2,55.6,65.5,59.2,52.1,92,73,43,30.13,30.00,16,1,16,0.00
2013-2-22,88.0,73.1,60.9,70.2,65.6,60.0,99,80,44,30.10,30.00,26,3,26,0.00
2013-2-23,88.7,76.6,69.6,69.4,67.2,63.3,94,75,45,30.03,29.87,30,3,30,0.00
2013-2-24,75.7,69.6,64.5,71.8,67.4,63.3,97,93,84,29.98,29.87,14,1,14,0.22
2013-2-25,86.9,71.4,61.2,71.9,65.3,60.6,99,84,43,29.95,29.77,16,1,16,0.12
2013-2-26,77.3,70.8,64.2,71.0,67.2,59.8,97,89,75,29.87,29.75,24,3,24,0.08
2013-2-27,77.2,66.2,56.8,62.0,56.0,49.3,93,72,46,29.98,29.87,22,4,26,0.00
2013-2-28,75.8,61.9,48.0,53.2,48.7,42.0,98,65,33,30.01,29.88,26,5,26,0.00
2013-3-1,66.9,56.3,49.2,47.8,40.3,29.6,82,57,31,30.02,29.92,26,5,26,0.00
2013-3-2,61.4,51.8,43.4,37.5,33.6,27.4,71,51,29,30.04,29.95,34,7,38,0.00
2013-3-3,54.2,45.2,36.9,32.9,31.3,29.2,79,59,43,30.18,30.01,30,6,30,0.00
2013-3-4,68.3,49.5,31.8,38.2,30.6,23.6,93,55,21,30.26,30.13,20,2,20,0.00
2013-3-5,79.0,59.7,39.3,56.9,42.5,33.8,98,59,28,30.20,30.02,26,3,26,0.00
2013-3-6,70.0,60.2,49.5,60.5,40.5,26.8,92,53,23,30.15,29.93,30,8,32,0.00
2013-3-7,70.7,54.1,40.5,46.8,38.9,31.3,91,59,35,30.24,30.13,16,3,16,0.00
2013-3-8,77.8,57.1,41.1,49.7,42.9,34.0,99,67,21,30.24,30.13,16,1,18,0.00
2013-3-9,77.7,60.2,45.6,52.6,48.8,43.7,96,70,37,30.25,30.16,20,1,20,0.00
2013-3-10,80.0,64.7,51.3,58.2,54.1,49.9,98,72,41,30.20,30.10,30,3,30,0.00
2013-3-11,79.9,66.6,52.5,60.7,56.5,50.8,98,73,48,30.14,29.93,22,3,22,0.00
2013-3-12,71.0,65.9,57.8,67.3,62.1,55.8,97,88,76,30.03,29.89,20,3,22,0.20
2013-3-13,77.5,61.8,50.8,56.0,42.5,30.0,94,56,19,30.18,30.03,22,4,26,0.00
2013-3-14,70.3,55.9,43.6,44.2,35.6,25.5,86,50,20,30.28,30.16,24,4,24,0.00
2013-3-15,74.8,56.0,38.1,45.8,38.2,31.2,98,59,23,30.31,30.15,18,1,18,0.00
2013-3-16,82.5,62.2,42.7,50.3,42.8,39.2,97,56,24,30.21,30.05,18,2,18,0.00
2013-3-17,79.6,63.8,45.4,58.6,50.6,41.4,96,65,40,30.16,30.01,20,1,20,0.00
2013-3-18,80.0,71.3,63.0,65.2,61.9,58.0,86,73,57,30.08,29.92,18,2,18,0.00
2013-3-19,90.8,73.6,62.3,64.6,61.3,56.6,97,70,32,30.04,29.89,16,2,16,0.00
2013-3-20,75.2,66.8,59.1,68.0,62.1,56.5,96,85,71,29.99,29.80,24,2,24,0.36
2013-3-21,71.8,60.2,50.1,56.5,42.3,29.4,94,58,22,29.99,29.87,22,4,22,0.00
2013-3-22,79.7,60.9,44.3,61.2,50.3,42.7,96,73,34,30.04,29.91,20,1,20,0.12
2013-3-23,87.7,72.7,62.0,72.8,66.2,60.8,99,82,53,30.01,29.77,20,2,22,0.07
2013-3-24,82.2,71.9,64.5,73.0,68.3,61.6,97,89,69,29.87,29.63,52,4,52,0.94
2013-3-25,73.3,65.5,55.3,66.5,46.6,28.3,94,56,20,30.04,29.72,30,6,30,0.00
2013-3-26,62.2,53.9,46.8,39.9,29.4,19.8,62,40,20,30.25,30.03,32,8,34,0.00
2013-3-27,65.7,51.6,40.4,40.8,32.4,27.0,82,51,25,30.32,30.22,20,3,20,0.00
2013-3-28,74.5,55.7,37.8,43.9,37.6,29.0,97,58,19,30.32,30.19,16,2,16,0.00
2013-3-29,77.3,59.5,43.0,48.6,40.4,31.1,98,57,19,30.35,30.20,20,1,20,0.00
2013-3-30,80.8,63.7,45.4,53.6,48.2,43.3,96,62,29,30.28,30.12,20,2,20,0.00
2013-3-31,83.2,70.9,61.0,57.5,53.8,51.4,78,57,35,30.19,30.00,12,2,22,0.00
2013-4-1,86.8,73.1,61.3,66.0,60.8,56.7,90,68,42,30.05,29.92,28,3,28,0.00
2013-4-2,87.5,72.3,60.9,63.3,58.8,51.4,97,67,33,30.10,30.00,18,2,18,0.00
2013-4-3,84.0,70.8,59.6,68.1,62.6,57.6,96,77,51,30.10,29.97,26,4,26,0.23
2013-4-4,74.8,69.8,66.2,69.4,66.7,62.7,97,90,78,30.03,29.85,30,2,30,0.19
2013-4-5,78.7,67.4,57.3,68.1,62.4,54.8,96,85,57,30.00,29.81,24,3,24,0.18
2013-4-6,79.0,65.3,53.9,60.7,56.6,51.1,95,75,49,30.16,30.00,20,3,20,0.01
2013-4-7,80.9,68.1,57.0,63.2,59.3,56.2,99,76,48,30.18,30.07,22,2,22,0.00
2013-4-8,85.1,70.3,56.8,65.2,60.3,56.0,99,74,44,30.16,30.07,26,3,26,0.00
2013-4-9,85.7,71.5,60.9,68.1,61.7,54.8,99,74,44,30.19,30.09,28,4,28,0.00
2013-4-10,88.1,72.7,58.7,69.8,64.5,57.8,99,78,43,30.15,30.00,30,4,30,0.00
2013-4-11,90.3,77.9,69.2,72.9,70.2,68.0,97,79,51,30.02,29.83,26,4,28,0.00
2013-4-12,85.7,78.1,72.8,73.5,71.0,68.2,93,80,61,29.92,29.81,22,3,22,0.00
2013-4-13,86.0,75.8,68.2,70.4,67.0,59.6,95,75,54,30.00,29.88,14,2,14,0.00
2013-4-14,87.3,74.5,66.3,73.7,67.8,62.1,97,80,59,30.00,29.82,24,3,28,3.15
2013-4-15,91.5,75.1,64.4,70.3,65.0,62.3,97,74,43,30.09,29.91,18,1,18,0.00
2013-4-16,87.5,75.9,67.4,73.2,68.3,64.1,98,79,58,30.17,30.06,18,1,18,0.00
2013-4-17,84.8,73.2,65.2,70.5,66.7,64.2,99,82,56,30.17,30.06,16,1,16,0.00
2013-4-18,88.5,76.0,64.2,71.4,67.3,63.3,99,77,48,30.09,29.97,24,3,24,0.00
2013-4-19,91.3,78.8,70.8,74.4,70.9,67.8,96,79,48,30.03,29.90,22,3,22,0.10
2013-4-20,75.2,68.2,60.3,70.7,63.3,56.4,95,85,69,30.17,29.96,18,2,18,0.01
2013-4-21,78.2,68.5,60.9,72.9,66.0,56.7,98,92,77,30.16,30.02,22,2,22,1.05
2013-4-22,80.8,69.4,64.7,71.0,66.7,63.2,98,92,66,30.09,30.00,20,2,20,0.21
2013-4-23,83.8,70.6,62.1,67.8,62.6,58.2,99,78,46,30.14,30.02,16,2,22,0.00
2013-4-24,87.8,71.0,56.3,66.3,61.3,55.5,99,75,42,30.16,30.07,20,2,20,0.00
2013-4-25,89.7,73.9,59.8,67.3,62.4,57.8,99,71,37,30.22,30.11,18,1,20,0.00
2013-4-26,90.2,75.3,62.6,69.2,65.2,61.5,98,74,44,30.25,30.16,18,1,18,0.00
2013-4-27,84.6,73.8,63.6,71.6,65.6,62.5,99,78,49,30.24,30.12,26,2,26,0.01
2013-4-28,83.8,73.0,63.1,68.3,64.9,61.2,99,78,50,30.15,30.01,32,4,32,0.00
2013-4-29,86.7,74.7,64.3,71.5,65.0,61.5,97,75,44,30.04,29.90,18,2,20,1.49
2013-4-30,89.9,73.5,65.4,71.6,67.5,63.2,99,84,45,30.03,29.92,24,1,24,0.39
2013-5-1,77.1,70.8,67.0,73.0,69.3,66.3,99,95,81,30.03,29.95,14,0,14,0.22
2013-5-2,74.0,69.6,66.3,71.3,68.6,65.4,99,97,88,29.98,29.83,20,1,20,1.79
2013-5-3,82.0,71.7,66.3,72.5,68.5,65.6,100,90,70,29.85,29.67,20,2,22,0.04
2013-5-4,86.2,74.3,68.1,72.3,68.5,66.3,98,83,56,29.80,29.67,16,2,16,0.03
2013-5-5,80.0,70.8,62.1,67.0,54.2,44.2,93,60,31,29.94,29.75,30,5,30,0.00
2013-5-6,80.0,69.8,62.1,60.7,56.0,50.5,87,64,40,30.01,29.90,24,4,28,0.00
2013-5-7,81.3,68.2,53.9,60.8,56.1,52.2,97,68,43,30.06,29.96,20,3,20,0.00
2013-5-8,85.3,71.7,58.1,64.0,59.3,56.8,99,68,41,30.14,30.03,18,2,18,0.00
2013-5-9,88.4,73.7,58.4,66.8,61.2,54.8,99,69,34,30.16,30.08,16,1,16,0.00
2013-5-10,92.3,77.2,63.4,72.4,67.4,62.2,99,75,41,30.15,30.00,22,2,22,0.00
2013-5-11,92.0,78.4,68.4,72.9,69.1,64.6,96,75,49,30.06,29.96,26,2,26,0.00
2013-5-12,92.0,79.2,68.9,73.1,67.4,64.0,97,70,44,30.04,29.94,24,3,26,0.00
2013-5-13,86.9,74.8,62.9,67.2,60.6,49.8,89,64,33,30.14,30.00,22,2,22,0.00
2013-5-14,87.2,70.6,55.1,57.9,54.6,46.6,95,62,27,30.22,30.13,18,1,18,0.00
2013-5-15,88.0,72.5,57.4,63.7,58.1,54.1,98,65,36,30.22,30.11,20,2,24,0.00
2013-5-16,89.3,74.5,60.3,65.0,61.9,57.6,97,68,36,30.15,30.03,22,2,24,0.00
2013-5-17,91.4,76.3,62.5,70.0,65.1,61.0,97,71,40,30.12,30.04,30,3,38,0.00
2013-5-18,95.5,78.8,66.4,72.8,68.5,62.3,98,74,35,30.13,30.01,24,2,24,0.00
2013-5-19,91.5,77.4,71.4,73.6,70.8,66.8,96,81,51,30.10,30.01,26,3,26,0.02
2013-5-20,90.3,76.4,69.9,73.3,70.2,67.0,97,83,48,30.10,29.99,26,1,26,0.13
2013-5-21,80.5,72.6,68.5,72.9,70.0,67.6,98,92,73,30.05,29.95,16,1,18,0.17
2013-5-22,87.9,75.0,67.0,74.4,70.4,66.4,99,87,54,29.99,29.92,22,1,22,0.10
2013-5-23,93.0,77.8,67.7,74.8,70.1,67.1,99,80,47,30.00,29.91,16,1,16,0.01
2013-5-24,95.8,80.9,69.3,74.9,67.8,60.4,98,69,33,30.10,29.97,16,2,18,0.00
2013-5-25,87.8,76.7,65.9,69.3,64.7,59.4,98,69,43,30.20,30.08,30,2,30,0.00
2013-5-26,88.3,75.4,67.0,62.5,60.4,56.6,83,61,36,30.23,30.15,18,1,18,0.00
2013-5-27,88.8,75.3,62.3,66.9,63.3,60.2,98,69,39,30.20,30.11,26,3,26,0.00
2013-5-28,89.3,77.2,65.4,72.1,68.6,64.2,98,77,53,30.16,30.08,32,4,32,0.00
2013-5-29,87.7,77.6,70.6,74.8,71.8,68.8,97,83,57,30.15,30.07,32,4,32,0.01
2013-5-30,87.8,78.6,71.7,75.5,71.9,68.9,97,81,55,30.13,30.06,32,6,32,0.07
2013-5-31,87.8,81.6,74.1,76.1,71.6,68.8,90,72,57,30.12,30.04,30,7,30,0.01
2013-6-1,88.3,78.9,71.3,78.3,73.1,69.8,97,83,65,30.08,29.98,28,4,28,0.05
2013-6-2,97.2,79.9,72.6,77.3,73.9,71.0,99,84,45,30.02,29.88,22,2,22,0.39
2013-6-3,91.5,79.5,73.6,77.2,74.4,72.4,98,86,55,30.01,29.88,14,1,16,0.52
2013-6-4,88.5,77.3,72.7,75.2,72.7,70.4,98,87,57,30.05,29.94,16,1,20,0.07
2013-6-5,88.0,75.0,71.6,77.0,72.9,69.9,99,93,65,30.03,29.92,16,1,18,1.98
2013-6-6,78.6,74.6,72.5,77.3,73.3,70.3,99,96,81,29.93,29.67,24,4,26,1.82
2013-6-7,92.0,80.2,72.7,77.2,73.3,70.6,97,81,59,29.95,29.76,20,2,20,0.00
2013-6-8,92.1,77.5,70.5,77.6,72.9,68.8,98,87,60,30.10,29.95,36,1,36,1.38
2013-6-9,90.0,79.3,70.2,77.7,73.3,69.6,99,83,62,30.12,30.03,24,3,28,0.00
2013-6-10,93.5,80.3,73.1,78.5,74.5,71.3,98,84,52,30.11,30.01,22,2,22,0.07
2013-6-11,92.3,78.2,72.3,78.5,74.1,69.4,99,89,57,30.09,30.01,14,1,20,0.08
2013-6-12,97.1,81.9,70.0,77.3,72.6,66.6,99,77,41,30.09,29.99,26,1,26,0.00
2013-6-13,96.0,83.5,73.2,77.5,73.5,71.2,95,74,47,30.04,29.89,14,1,18,0.00
2013-6-14,94.1,84.0,75.6,75.4,72.5,66.8,92,71,43,29.94,29.83,16,3,16,0.00
2013-6-15,91.3,82.1,77.1,79.4,74.9,71.8,93,79,62,30.08,29.91,22,3,22,0.00
2013-6-16,88.8,81.6,77.4,80.0,75.5,72.5,91,82,65,30.10,30.03,24,3,28,0.01
2013-6-17,90.1,79.9,74.4,80.9,76.5,73.2,98,90,64,30.09,29.97,16,1,20,1.24
2013-6-18,95.5,81.4,71.7,78.8,74.4,70.8,99,81,50,30.08,29.95,16,1,16,0.10
2013-6-19,94.7,83.1,73.0,77.6,74.1,69.4,97,76,46,30.05,29.95,20,2,20,0.00
2013-6-20,95.3,80.3,73.3,79.5,73.9,70.5,97,82,49,30.11,30.01,24,1,24,0.21
2013-6-21,89.8,77.5,71.4,77.6,72.8,70.2,99,87,59,30.13,30.05,18,1,18,0.05
2013-6-22,92.5,80.1,71.3,77.5,72.6,68.3,99,80,47,30.13,30.05,14,1,16,0.00
2013-6-23,90.3,79.4,71.3,77.0,74.0,70.4,99,84,57,30.16,30.08,20,2,20,0.00
2013-6-24,92.1,81.5,72.5,77.3,73.9,71.5,99,79,57,30.20,30.09,22,2,24,0.00
2013-6-25,92.0,81.9,71.7,77.5,73.4,69.4,99,77,53,30.17,30.04,20,2,20,0.00
2013-6-26,93.8,80.7,74.3,79.3,74.0,69.8,97,81,53,30.09,30.01,32,2,32,0.02
2013-6-27,95.3,81.2,70.5,78.3,73.1,69.4,98,78,48,30.05,29.93,12,1,12,0.03
2013-6-28,94.3,79.5,72.8,78.3,74.1,69.7,97,85,53,29.98,29.85,30,1,30,0.28
2013-6-29,91.3,81.0,75.0,78.4,74.5,71.0,96,82,57,29.89,29.80,24,2,24,0.00
2013-6-30,91.6,77.6,73.6,78.4,74.1,70.6,97,90,61,29.90,29.82,44,1,44,0.65
2013-7-1,86.0,76.4,73.3,77.2,73.2,70.7,98,90,67,30.04,29.87,20,2,22,0.40
2013-7-2,84.7,75.8,72.8,78.9,74.0,71.9,98,94,80,30.11,29.99,18,1,18,0.38
2013-7-3,89.3,77.3,72.0,79.2,74.5,70.7,99,92,68,30.15,30.06,28,2,32,0.42
2013-7-4,90.6,78.4,71.2,78.2,73.8,69.1,99,87,60,30.17,30.08,24,3,34,0.83
2013-7-5,90.3,80.5,72.9,78.4,74.4,71.6,99,83,56,30.16,30.07,30,5,30,0.01
2013-7-6,91.5,82.1,73.1,77.1,74.5,72.1,98,79,57,30.14,30.05,26,4,28,0.00
2013-7-7,91.3,82.3,73.5,77.5,74.3,70.7,98,78,53,30.15,30.05,26,3,26,0.00
2013-7-8,92.9,82.4,73.9,78.3,74.7,72.8,98,79,57,30.17,30.08,22,2,22,0.00
2013-7-9,93.0,81.8,71.7,77.2,72.8,69.7,99,76,50,30.18,30.07,16,1,16,0.00
2013-7-10,91.5,81.4,72.5,76.3,73.5,70.4,99,78,53,30.10,29.98,28,2,28,0.00
2013-7-11,95.2,81.5,73.2,76.3,73.2,70.7,97,77,48,30.05,29.92,20,2,22,0.00
2013-7-12,91.2,79.8,72.9,77.1,74.5,71.7,97,85,59,29.96,29.90,10,1,16,0.14
2013-7-13,92.2,79.1,72.4,77.1,73.3,69.6,98,84,56,30.02,29.91,34,2,34,0.00
2013-7-14,89.4,77.6,72.1,77.5,73.4,70.9,97,87,64,30.11,29.99,28,3,28,0.00
2013-7-15,89.7,79.4,69.6,76.8,73.3,68.8,99,83,61,30.13,30.03,22,2,22,0.00
2013-7-16,89.9,77.2,72.7,78.6,73.8,71.7,98,90,60,30.17,30.11,32,2,32,1.46
2013-7-17,89.7,78.3,73.1,78.6,74.7,72.2,99,89,63,30.17,30.09,30,1,36,0.27
2013-7-18,87.1,77.7,72.0,77.0,73.5,70.8,99,88,67,30.13,30.06,18,2,22,0.07
2013-7-19,90.7,77.8,71.5,77.8,73.4,69.8,98,87,63,30.15,30.04,16,1,16,1.75
2013-7-20,91.5,77.7,72.0,80.5,74.5,71.4,99,91,62,30.11,30.01,30,1,30,0.34
2013-7-21,95.1,79.8,72.4,79.9,74.4,70.0,98,85,53,30.13,30.01,24,1,24,0.00
2013-7-22,94.0,79.6,74.2,78.5,74.7,72.1,96,86,54,30.13,30.07,18,1,18,0.12
2013-7-23,86.3,78.4,73.6,78.9,74.3,72.6,98,88,70,30.10,29.95,10,2,26,0.01
2013-7-24,88.5,81.2,75.5,79.2,75.5,71.2,97,83,63,30.00,29.88,22,2,28,0.01
2013-7-25,87.3,80.3,75.4,78.7,75.8,72.6,95,87,69,29.98,29.87,22,2,22,0.06
2013-7-26,93.7,82.6,74.9,79.5,76.1,73.2,98,82,53,30.01,29.94,14,1,14,0.00
2013-7-27,93.8,80.6,73.6,79.2,75.3,72.7,98,85,55,30.00,29.89,14,1,14,0.38
2013-7-28,93.8,78.0,72.0,78.8,73.6,68.8,99,88,50,30.07,29.94,32,1,32,1.54
2013-7-29,92.2,79.1,71.4,79.1,74.7,70.8,99,88,59,30.16,30.03,18,0,18,0.05
2013-7-30,94.4,82.8,73.9,79.0,75.5,71.5,99,81,54,30.18,30.08,30,2,30,0.00
2013-7-31,93.8,81.3,74.8,79.5,75.4,71.1,98,83,55,30.14,30.01,16,1,24,0.02
2013-8-1,93.5,79.3,73.2,78.6,74.4,71.4,98,86,55,30.08,29.96,36,1,36,0.15
2013-8-2,93.7,81.9,73.0,78.8,74.6,70.7,99,81,49,30.04,29.95,18,1,18,0.01
2013-8-3,94.9,80.2,74.9,80.2,75.1,73.2,97,86,53,30.10,30.00,24,1,26,0.68
2013-8-4,92.1,80.9,74.6,80.7,76.3,73.7,99,87,61,30.09,29.98,18,1,18,0.01
2013-8-5,95.3,81.0,75.5,80.8,76.7,73.0,97,88,56,30.02,29.91,18,1,22,0.33
2013-8-6,94.0,81.8,73.8,81.2,76.4,73.0,98,85,56,29.98,29.90,18,1,18,0.06
2013-8-7,92.2,82.8,76.2,80.1,76.8,75.1,98,83,63,29.99,29.92,28,2,28,0.00
2013-8-8,93.0,83.4,75.3,79.8,75.9,72.8,98,80,57,30.06,29.96,24,3,24,0.00
2013-8-9,93.2,82.7,75.0,78.5,74.9,70.6,98,79,52,30.08,29.99,28,3,28,0.00
2013-8-10,94.9,83.2,72.7,79.0,74.5,71.4,98,77,52,30.13,30.04,20,3,20,0.00
2013-8-11,96.4,83.5,73.5,79.4,74.9,71.9,98,78,48,30.16,30.07,14,2,20,0.00
2013-8-12,96.0,83.6,73.6,78.2,74.1,69.4,98,75,48,30.14,30.00,18,1,18,0.00
2013-8-13,96.4,84.6,73.6,77.7,73.6,68.3,97,73,43,30.06,29.92,15,1,15,0.00
2013-8-14,93.8,81.2,75.9,82.1,75.5,72.2,96,84,54,30.02,29.90,24,1,24,0.11
2013-8-15,95.8,82.7,73.5,79.1,74.7,68.4,98,79,44,30.05,29.92,20,2,20,0.01
2013-8-16,93.4,81.3,73.1,78.3,75.6,71.8,98,84,54,30.09,29.96,24,1,24,2.47
2013-8-17,93.7,81.5,74.9,80.7,76.9,74.0,99,87,58,30.10,29.99,24,2,26,0.03
2013-8-18,91.8,82.0,75.8,79.2,76.2,73.8,98,84,61,30.11,30.01,29,3,29,0.01
2013-8-19,91.4,81.8,75.9,80.5,76.0,71.7,98,83,61,30.10,29.98,22,2,22,0.00
2013-8-20,94.6,83.4,75.1,79.0,75.3,70.8,98,79,50,30.10,30.00,24,3,24,0.00
2013-8-21,91.5,80.6,75.1,81.1,76.1,71.8,97,87,64,30.12,30.05,33,2,46,0.54
2013-8-22,87.6,78.8,76.4,80.5,76.6,74.1,98,93,75,30.10,30.00,20,0,20,0.22
2013-8-23,91.8,79.6,75.1,80.0,76.4,73.1,99,91,63,30.04,29.96,22,1,26,0.11
2013-8-24,92.8,78.6,73.8,80.9,75.2,72.7,99,90,60,30.12,30.01,18,0,20,0.30
2013-8-25,86.2,77.9,73.6,79.3,75.1,73.0,99,92,73,30.17,30.09,22,0,22,0.16
2013-8-26,90.8,80.2,73.1,79.7,75.2,72.5,99,86,63,30.15,30.02,20,1,20,0.01
2013-8-27,89.9,80.1,72.7,75.9,71.7,67.7,98,77,53,30.08,30.00,31,2,31,0.00
2013-8-28,91.0,79.9,69.4,75.8,70.3,66.3,98,75,48,30.07,29.98,18,1,18,0.00
2013-8-29,91.8,81.3,71.7,75.4,72.2,68.7,98,76,49,30.04,29.93,20,1,20,0.00
2013-8-30,95.8,81.8,73.7,78.2,74.5,72.2,97,80,49,29.99,29.88,20,1,20,0.05
2013-8-31,94.8,81.5,72.7,77.9,73.8,70.3,98,80,48,29.98,29.87,20,2,20,0.41
2013-9-1,94.5,79.4,72.3,77.3,73.5,71.0,98,84,51,30.01,29.89,31,1,31,0.25
2013-9-2,94.6,79.6,72.1,77.6,73.9,69.9,99,84,50,30.02,29.92,31,1,31,0.16
2013-9-3,92.7,81.8,72.4,78.3,74.1,68.0,99,79,49,30.03,29.92,15,1,15,0.00
2013-9-4,94.7,80.9,74.1,78.5,74.3,71.1,97,82,52,30.10,29.98,26,1,26,0.09
2013-9-5,94.2,80.7,72.6,80.2,75.6,71.2,98,85,56,30.11,30.01,20,1,22,0.01
2013-9-6,93.7,78.3,71.8,79.4,74.6,69.1,99,90,56,30.06,29.98,33,1,33,1.00
2013-9-7,91.3,77.0,71.9,78.1,73.8,70.9,98,91,58,30.03,29.93,22,1,22,0.23
2013-9-8,72.8,72.5,72.0,72.2,71.8,71.4,98,98,97,29.96,29.92,0,0,0,0.00
2013-9-9,90.0,81.4,75.8,74.3,73.1,70.8,92,77,56,30.05,29.98,15,1,15,0.00
2013-9-10,90.5,80.8,72.7,75.4,72.7,66.5,97,78,47,30.11,30.01,20,1,22,0.00
2013-9-11,76.1,74.8,74.2,73.6,72.9,72.3,96,94,89,30.09,30.03,2,0,2,0.00
2013-9-16,92.2,82.3,71.9,78.2,74.9,71.0,99,80,55,30.09,29.99,29,2,31,0.11
2013-9-17,90.0,79.7,73.0,77.6,73.9,71.3,99,84,59,30.07,29.97,29,1,29,0.01
2013-9-18,87.2,78.0,73.5,78.4,73.7,70.5,97,87,66,30.05,29.98,24,1,24,0.17
2013-9-19,91.0,78.6,72.2,77.0,72.9,69.8,98,84,57,30.06,29.99,22,1,24,0.02
2013-9-20,89.4,77.9,69.3,73.7,70.2,68.2,98,79,52,30.04,29.92,20,1,20,0.00
2013-9-21,91.2,78.9,68.6,74.1,70.6,67.0,99,78,47,29.96,29.77,18,1,18,0.00
2013-9-22,92.0,78.6,73.5,77.5,73.5,70.5,98,86,56,29.86,29.75,22,1,22,0.31
2013-9-23,86.4,76.1,73.3,79.3,74.3,72.1,99,95,74,29.97,29.85,15,1,15,0.92
2013-9-24,85.6,76.6,73.5,77.9,74.6,72.4,98,94,75,29.97,29.84,18,1,18,0.64
2013-9-25,82.3,76.8,73.2,74.6,72.9,71.0,98,88,74,29.86,29.78,26,2,26,0.01
2013-9-26,92.3,80.8,73.0,79.0,73.2,64.4,98,80,41,29.87,29.77,26,3,26,0.00
2013-9-27,83.3,74.9,70.2,74.9,71.2,68.6,96,89,73,29.97,29.85,18,1,18,0.01
2013-9-28,84.5,76.3,70.4,76.0,71.4,68.6,98,85,70,30.02,29.92,18,1,18,0.01
2013-9-29,90.7,77.6,69.9,72.9,69.6,66.2,95,78,46,30.00,29.91,9,1,15,0.00
2013-9-30,89.7,77.0,68.1,74.5,70.6,67.2,99,82,52,30.03,29.92,11,1,15,0.00
2013-10-1,87.8,77.7,70.5,75.3,71.6,68.9,98,82,61,30.08,29.99,22,1,22,0.00
2013-10-2,87.8,73.4,68.3,72.9,69.0,67.1,97,87,61,30.08,30.00,11,0,11,0.00
2013-10-3,91.3,77.8,67.8,75.1,70.5,66.7,98,80,52,30.08,29.99,22,2,22,0.00
2013-10-4,93.3,78.5,69.1,75.9,71.4,68.2,99,81,48,30.09,30.00,15,1,15,0.00
2013-10-5,89.5,77.5,68.9,75.8,71.3,68.0,99,83,53,30.07,29.97,20,1,20,0.00
2013-10-6,93.8,77.8,69.7,78.2,72.7,68.8,99,86,51,29.99,29.86,37,1,37,1.05
2013-10-7,84.5,75.9,72.2,77.8,73.3,70.9,99,92,76,29.89,29.75,26,1,26,0.16
2013-10-8,89.0,78.1,73.7,77.4,73.9,70.9,98,88,63,29.95,29.78,24,3,24,0.04
2013-10-9,81.7,73.7,67.3,72.2,69.0,64.9,93,86,70,30.05,29.93,20,3,24,0.01
2013-10-10,87.8,74.2,64.8,70.7,66.7,63.6,97,80,49,30.07,29.97,13,1,13,0.00
2013-10-11,87.9,73.7,62.1,69.6,65.0,61.4,99,77,47,30.06,29.94,15,1,18,0.00
2013-10-12,88.5,74.7,64.7,71.6,64.9,59.8,98,75,39,30.05,29.97,15,1,15,0.00
2013-10-13,88.3,74.8,62.6,68.1,63.8,59.1,98,72,41,30.09,29.99,18,1,18,0.00
2013-10-14,87.8,74.7,66.5,70.6,67.2,64.4,96,79,49,30.05,29.94,18,1,18,0.00
2013-10-15,83.7,73.4,68.4,72.9,69.5,66.3,96,88,67,30.01,29.90,15,1,15,0.00
2013-10-16,89.3,76.8,69.6,72.7,70.0,65.2,98,82,47,29.99,29.90,13,1,13,0.00
2013-10-17,88.8,76.6,68.4,74.5,70.4,67.5,99,83,54,29.99,29.89,11,1,11,0.00
2013-10-18,91.6,77.9,68.0,74.8,70.7,67.1,99,81,50,30.00,29.90,20,2,22,0.00
2013-10-19,86.3,76.2,69.8,75.2,71.7,68.7,98,87,59,29.97,29.87,13,1,15,0.00
2013-10-20,88.9,78.5,73.8,76.1,73.2,70.3,96,84,65,29.98,29.86,11,1,13,0.00
2013-10-21,92.5,78.8,71.0,77.4,73.3,69.8,98,85,55,30.01,29.90,15,1,15,0.28
2013-10-22,90.7,79.5,72.1,76.8,72.9,70.1,98,82,57,29.96,29.81,20,2,20,0.01
2013-10-23,84.7,74.9,66.2,71.2,63.6,53.2,94,70,40,30.02,29.81,20,2,20,0.01
2013-10-24,73.0,65.4,60.5,59.7,55.8,47.7,91,72,60,30.17,30.02,13,1,13,0.00
2013-10-25,83.2,67.6,55.7,58.9,55.9,51.0,96,70,35,30.25,30.16,15,1,15,0.00
2013-10-26,81.8,65.9,54.8,59.5,55.4,50.6,96,73,35,30.22,30.10,11,1,11,0.00
2013-10-27,82.1,65.3,54.2,61.1,55.6,53.1,98,74,38,30.15,30.07,13,1,15,0.00
2013-10-28,86.1,67.4,53.6,64.9,59.3,52.2,98,78,45,30.20,30.11,11,1,11,0.00
2013-10-29,84.8,71.4,61.1,69.8,64.3,60.2,98,81,50,30.23,30.15,22,1,22,0.01
2013-10-30,85.0,72.4,64.1,70.7,66.3,62.9,97,83,57,30.24,30.12,20,1,20,0.00
2013-10-31,86.8,74.2,63.5,70.7,66.9,62.6,99,80,49,30.15,30.00,18,3,24,0.00
2013-11-1,90.2,77.6,68.1,72.7,68.6,64.3,98,76,48,30.02,29.86,26,2,26,0.00
2013-11-2,77.0,69.0,61.6,72.0,66.4,60.4,96,91,82,29.98,29.82,26,1,26,0.41
2013-11-3,78.1,64.9,56.1,60.5,55.0,46.4,98,74,35,30.12,29.96,20,1,20,0.01
2013-11-4,80.1,68.5,62.2,65.4,60.7,56.0,89,77,50,30.19,30.10,26,1,26,0.00
2013-11-5,83.0,72.4,64.8,69.8,66.6,62.3,95,83,60,30.17,30.10,31,3,31,0.06
2013-11-6,81.3,71.7,65.9,71.3,67.6,64.4,97,87,66,30.14,30.05,13,1,13,0.01
2013-11-7,81.8,72.3,65.9,70.8,67.9,64.6,98,87,63,30.06,29.96,15,1,18,0.00
2013-11-8,79.7,68.5,62.8,67.3,63.1,56.8,97,84,64,30.14,30.00,18,2,22,0.01
2013-11-9,81.1,69.4,61.0,66.4,61.9,58.8,97,79,55,30.20,30.11,22,1,22,0.00
2013-11-10,84.2,70.4,61.0,67.8,64.1,59.9,98,82,51,30.18,30.10,13,1,13,0.00
2013-11-11,84.2,70.8,62.8,69.7,64.7,61.9,98,83,53,30.18,30.08,18,1,18,0.00
2013-11-12,79.8,69.5,61.9,69.1,64.4,58.6,99,85,62,30.13,30.01,15,0,15,0.01
2013-11-13,66.8,60.9,53.3,58.6,52.6,49.6,88,75,61,30.33,30.09,35,5,35,0.00
2013-11-14,76.3,62.1,50.3,59.9,54.2,48.6,96,78,45,30.32,30.19,26,2,26,0.00
2013-11-15,77.7,66.9,57.3,67.0,62.7,55.6,96,87,67,30.22,30.09,15,1,15,0.05
2013-11-16,75.7,70.4,67.1,73.8,68.8,65.3,98,95,91,30.15,30.04,13,0,13,0.12
2013-11-17,87.0,75.4,67.2,73.2,69.5,66.3,98,83,57,30.10,29.99,24,2,24,0.00
2013-11-18,84.1,74.9,68.8,71.4,69.1,67.3,98,83,63,30.04,29.92,20,1,24,0.00
2013-11-19,79.7,71.1,65.1,69.4,64.4,59.2,95,80,53,29.99,29.89,11,1,11,0.00
2013-11-20,81.2,71.6,64.8,72.2,67.5,62.5,96,87,70,30.12,29.97,20,1,22,0.06
2013-11-21,77.5,71.6,68.9,72.4,69.5,68.0,97,93,81,30.20,30.11,24,1,24,0.12
2013-11-22,79.1,71.8,66.8,72.3,68.2,64.7,98,89,68,30.22,30.12,26,1,26,0.05
2013-11-23,85.8,71.8,63.1,70.1,65.6,62.2,99,83,51,30.12,30.00,15,0,18,0.00
2013-11-24,70.4,65.0,61.4,65.7,59.1,53.1,97,82,70,30.25,30.03,26,4,29,0.00
2013-11-25,74.0,66.5,60.4,62.4,57.8,53.5,87,74,57,30.27,30.09,33,4,35,0.00
2013-11-26,82.1,71.1,65.9,73.1,67.8,62.3,96,90,72,30.10,29.85,26,6,26,0.08
2013-11-30,75.8,68.3,62.5,65.3,62.5,60.3,94,82,64,30.24,30.20,15,3,15,0.00
2013-12-1,74.5,65.6,61.5,66.3,62.9,60.5,97,91,75,30.20,29.99,18,2,18,0.00
2013-12-2,74.5,64.5,58.6,62.8,59.5,54.8,98,85,56,29.99,29.83,20,1,20,0.00
2013-12-3,78.3,65.1,54.0,62.0,58.5,52.9,98,81,54,30.01,29.90,20,1,20,0.00
2013-12-4,83.4,68.9,58.6,68.4,63.3,57.5,99,84,53,30.10,29.98,13,0,13,0.00
2013-12-5,83.4,71.1,60.1,69.2,65.1,59.2,99,83,57,30.19,30.09,22,2,22,0.00
2013-12-6,86.0,73.2,63.6,71.6,67.6,62.7,99,84,57,30.19,30.09,24,2,24,0.00
2013-12-7,84.7,72.5,63.3,69.5,65.7,62.3,98,81,49,30.25,30.15,18,1,18,0.00
2013-12-8,83.4,71.7,61.0,71.2,65.8,60.0,99,84,55,30.24,30.11,24,2,26,0.01
2013-12-9,84.7,72.0,62.3,71.9,66.1,61.4,99,83,57,30.20,30.09,20,1,20,0.00
2013-12-10,84.8,72.6,59.9,71.0,64.8,59.0,98,79,51,30.20,30.06,20,2,20,0.00
2013-12-11,83.3,69.1,58.8,68.9,62.5,54.8,90,80,58,30.26,30.15,15,2,15,0.00
2013-12-12,71.5,61.5,52.0,61.7,50.5,34.8,95,70,32,30.33,30.20,20,4,26,0.00
2013-12-13,74.2,59.6,46.7,57.4,51.9,44.6,95,77,51,30.29,30.14,26,2,26,0.00
2013-12-14,81.4,70.6,58.4,71.4,65.5,56.1,96,84,66,30.14,29.94,26,2,26,0.00
2013-12-15,72.4,67.8,59.2,70.3,63.0,55.0,96,85,69,30.13,29.88,22,3,22,0.05
2013-12-16,67.6,55.1,44.3,55.3,47.7,42.4,94,77,49,30.25,30.12,18,2,18,0.00
2013-12-17,74.3,55.8,44.1,55.6,49.2,41.9,95,80,51,30.27,30.16,13,1,13,0.00
2013-12-18,72.7,54.5,40.9,48.8,44.8,39.8,97,74,39,30.30,30.21,20,1,20,0.00
2013-12-19,76.7,57.5,42.4,58.7,50.7,40.8,98,81,47,30.30,30.19,20,1,20,0.01
2013-12-20,83.6,72.4,53.1,63.8,61.5,51.7,98,71,50,30.23,30.12,24,3,24,0.00
2013-12-21,85.0,72.2,61.2,72.0,67.4,59.7,98,86,60,30.17,30.05,29,4,29,0.00
2013-12-22,85.5,74.1,66.0,73.0,68.5,64.7,98,84,58,30.15,30.08,22,2,24,0.01
2013-12-23,86.0,74.2,64.7,73.2,68.8,63.5,98,84,58,30.18,30.07,22,1,22,0.00
2013-12-24,72.1,63.6,51.7,70.4,53.4,29.3,96,73,29,30.27,30.09,29,4,29,0.00
2013-12-25,75.8,58.5,45.9,57.8,50.1,40.1,93,75,48,30.26,30.17,24,2,24,0.00
2013-12-26,78.5,63.3,55.8,64.7,58.8,54.6,98,86,59,30.23,30.11,18,2,18,0.00
2013-12-27,71.5,64.8,59.4,65.7,61.7,57.4,95,90,81,30.27,30.18,18,3,20,0.00
2013-12-28,75.4,69.7,64.6,70.8,67.5,63.1,98,93,82,30.23,30.02,24,4,26,0.10
2013-12-29,77.8,72.0,65.5,72.8,69.9,64.5,97,93,81,30.03,29.88,22,2,22,0.45
2013-12-30,71.7,62.0,56.3,64.6,58.3,53.8,97,88,61,30.21,29.99,15,1,15,0.00
2013-12-31,69.0,61.1,56.8,55.2,53.2,49.4,91,76,52,30.32,30.18,15,1,15,0.00
2014-1-1,65.2,61.4,58.1,63.7,59.5,55.0,98,94,86,30.27,30.07,13,1,20,0.04
2014-1-2,80.7,68.0,59.9,73.0,66.2,54.7,99,94,72,30.08,29.82,40,3,40,0.46